sensor_id;sensor_type;location;lat;lon;timestamp;P1;durP1;ratioP1;P2;durP2;ratioP2
6485;SDS011;3276;48.490;9.222;2023-05-24T00:01:38;5.40;;;3.47;;
6485;SDS011;3276;48.490;9.222;2023-05-24T00:04:06;5.43;;;4.93;;
6485;SDS011;3276;48.490;9.222;2023-05-24T00:06:32;5.50;;;4.07;;
6485;SDS011;3276;48.490;9.222;2023-05-24T00:09:01;7.00;;;3.90;;
6485;SDS011;3276;48.490;9.222;2023-05-24T00:11:28;7.27;;;4.60;;
6485;SDS011;3276;48.490;9.222;2023-05-24T00:13:53;5.07;;;4.10;;
6485;SDS011;3276;48.490;9.222;2023-05-24T00:16:19;6.20;;;4.17;;
6485;SDS011;3276;48.490;9.222;2023-05-24T00:18:45;6.37;;;3.87;;
6485;SDS011;3276;48.490;9.222;2023-05-24T00:21:12;8.73;;;4.50;;
6485;SDS011;3276;48.490;9.222;2023-05-24T00:23:38;6.03;;;4.43;;
6485;SDS011;3276;48.490;9.222;2023-05-24T00:26:04;6.00;;;3.83;;
6485;SDS011;3276;48.490;9.222;2023-05-24T00:28:30;7.37;;;4.50;;
6485;SDS011;3276;48.490;9.222;2023-05-24T00:30:56;4.73;;;3.17;;
6485;SDS011;3276;48.490;9.222;2023-05-24T00:33:22;6.63;;;5.43;;
6485;SDS011;3276;48.490;9.222;2023-05-24T00:35:48;5.47;;;3.87;;
6485;SDS011;3276;48.490;9.222;2023-05-24T00:38:20;7.70;;;3.77;;
6485;SDS011;3276;48.490;9.222;2023-05-24T00:40:52;6.80;;;4.20;;
6485;SDS011;3276;48.490;9.222;2023-05-24T00:43:20;6.57;;;3.70;;
6485;SDS011;3276;48.490;9.222;2023-05-24T00:46:05;9.07;;;5.53;;
6485;SDS011;3276;48.490;9.222;2023-05-24T00:48:40;5.87;;;3.73;;
6485;SDS011;3276;48.490;9.222;2023-05-24T00:51:06;4.93;;;4.03;;
6485;SDS011;3276;48.490;9.222;2023-05-24T00:53:32;5.80;;;4.23;;
6485;SDS011;3276;48.490;9.222;2023-05-24T00:56:01;5.23;;;3.40;;
6485;SDS011;3276;48.490;9.222;2023-05-24T00:58:27;4.97;;;4.03;;
6485;SDS011;3276;48.490;9.222;2023-05-24T01:00:57;5.77;;;4.30;;
6485;SDS011;3276;48.490;9.222;2023-05-24T01:03:24;6.87;;;4.13;;
6485;SDS011;3276;48.490;9.222;2023-05-24T01:05:57;7.00;;;3.70;;
6485;SDS011;3276;48.490;9.222;2023-05-24T01:14:11;5.40;;;3.97;;
6485;SDS011;3276;48.490;9.222;2023-05-24T01:22:37;6.50;;;3.33;;
6485;SDS011;3276;48.490;9.222;2023-05-24T01:27:59;6.50;;;3.73;;
6485;SDS011;3276;48.490;9.222;2023-05-24T01:30:28;8.43;;;3.83;;
6485;SDS011;3276;48.490;9.222;2023-05-24T01:32:53;4.77;;;3.27;;
6485;SDS011;3276;48.490;9.222;2023-05-24T01:35:20;4.60;;;3.17;;
6485;SDS011;3276;48.490;9.222;2023-05-24T01:37:46;4.80;;;3.83;;
6485;SDS011;3276;48.490;9.222;2023-05-24T01:40:12;4.60;;;2.60;;
6485;SDS011;3276;48.490;9.222;2023-05-24T01:42:45;6.70;;;3.77;;
6485;SDS011;3276;48.490;9.222;2023-05-24T01:45:26;4.23;;;2.77;;
6485;SDS011;3276;48.490;9.222;2023-05-24T01:50:32;5.67;;;3.77;;
6485;SDS011;3276;48.490;9.222;2023-05-24T01:53:04;4.90;;;3.90;;
6485;SDS011;3276;48.490;9.222;2023-05-24T01:55:33;5.40;;;3.13;;
6485;SDS011;3276;48.490;9.222;2023-05-24T01:58:02;6.40;;;3.43;;
6485;SDS011;3276;48.490;9.222;2023-05-24T02:00:30;4.63;;;3.50;;
6485;SDS011;3276;48.490;9.222;2023-05-24T02:02:57;3.97;;;3.00;;
6485;SDS011;3276;48.490;9.222;2023-05-24T02:05:23;4.50;;;2.97;;
6485;SDS011;3276;48.490;9.222;2023-05-24T02:07:51;5.60;;;3.50;;
6485;SDS011;3276;48.490;9.222;2023-05-24T02:10:17;4.50;;;3.40;;
6485;SDS011;3276;48.490;9.222;2023-05-24T02:12:43;9.07;;;3.23;;
6485;SDS011;3276;48.490;9.222;2023-05-24T02:15:08;5.90;;;3.50;;
6485;SDS011;3276;48.490;9.222;2023-05-24T02:17:38;4.10;;;2.87;;
6485;SDS011;3276;48.490;9.222;2023-05-24T02:20:04;7.30;;;4.47;;
6485;SDS011;3276;48.490;9.222;2023-05-24T02:22:30;5.70;;;2.50;;
6485;SDS011;3276;48.490;9.222;2023-05-24T02:24:56;6.00;;;3.50;;
6485;SDS011;3276;48.490;9.222;2023-05-24T02:27:22;6.17;;;3.67;;
6485;SDS011;3276;48.490;9.222;2023-05-24T02:29:47;6.93;;;2.90;;
6485;SDS011;3276;48.490;9.222;2023-05-24T02:32:13;4.90;;;3.37;;
6485;SDS011;3276;48.490;9.222;2023-05-24T02:34:39;4.37;;;3.00;;
6485;SDS011;3276;48.490;9.222;2023-05-24T02:37:04;3.50;;;2.90;;
6485;SDS011;3276;48.490;9.222;2023-05-24T02:39:30;4.73;;;3.30;;
6485;SDS011;3276;48.490;9.222;2023-05-24T02:41:56;10.63;;;3.40;;
6485;SDS011;3276;48.490;9.222;2023-05-24T02:44:22;4.83;;;3.10;;
6485;SDS011;3276;48.490;9.222;2023-05-24T02:46:47;8.77;;;3.17;;
6485;SDS011;3276;48.490;9.222;2023-05-24T02:49:13;4.80;;;3.10;;
6485;SDS011;3276;48.490;9.222;2023-05-24T02:51:39;6.47;;;3.83;;
6485;SDS011;3276;48.490;9.222;2023-05-24T02:54:04;4.80;;;3.63;;
6485;SDS011;3276;48.490;9.222;2023-05-24T02:56:30;7.37;;;3.23;;
6485;SDS011;3276;48.490;9.222;2023-05-24T02:58:56;4.53;;;2.77;;
6485;SDS011;3276;48.490;9.222;2023-05-24T03:01:24;6.47;;;3.37;;
6485;SDS011;3276;48.490;9.222;2023-05-24T03:03:49;5.07;;;3.90;;
6485;SDS011;3276;48.490;9.222;2023-05-24T03:06:15;5.43;;;3.70;;
6485;SDS011;3276;48.490;9.222;2023-05-24T03:08:41;9.47;;;3.70;;
6485;SDS011;3276;48.490;9.222;2023-05-24T03:11:06;4.37;;;3.10;;
6485;SDS011;3276;48.490;9.222;2023-05-24T03:13:32;9.30;;;4.13;;
6485;SDS011;3276;48.490;9.222;2023-05-24T03:15:57;7.33;;;3.60;;
6485;SDS011;3276;48.490;9.222;2023-05-24T03:18:28;8.73;;;4.73;;
6485;SDS011;3276;48.490;9.222;2023-05-24T03:20:54;6.63;;;3.73;;
6485;SDS011;3276;48.490;9.222;2023-05-24T03:23:20;7.93;;;4.43;;
6485;SDS011;3276;48.490;9.222;2023-05-24T03:25:45;4.50;;;3.33;;
6485;SDS011;3276;48.490;9.222;2023-05-24T03:28:11;9.70;;;4.87;;
6485;SDS011;3276;48.490;9.222;2023-05-24T03:30:38;4.67;;;3.60;;
6485;SDS011;3276;48.490;9.222;2023-05-24T03:33:04;8.87;;;4.57;;
6485;SDS011;3276;48.490;9.222;2023-05-24T03:35:29;6.57;;;4.30;;
6485;SDS011;3276;48.490;9.222;2023-05-24T03:37:55;11.30;;;4.60;;
6485;SDS011;3276;48.490;9.222;2023-05-24T03:40:21;8.03;;;4.43;;
6485;SDS011;3276;48.490;9.222;2023-05-24T03:42:46;7.73;;;4.70;;
6485;SDS011;3276;48.490;9.222;2023-05-24T03:45:12;6.80;;;4.53;;
6485;SDS011;3276;48.490;9.222;2023-05-24T03:47:37;7.00;;;4.23;;
6485;SDS011;3276;48.490;9.222;2023-05-24T03:50:03;7.70;;;4.03;;
6485;SDS011;3276;48.490;9.222;2023-05-24T03:52:29;7.93;;;4.17;;
6485;SDS011;3276;48.490;9.222;2023-05-24T03:54:55;10.20;;;4.87;;
6485;SDS011;3276;48.490;9.222;2023-05-24T03:57:21;6.30;;;3.87;;
6485;SDS011;3276;48.490;9.222;2023-05-24T03:59:46;5.30;;;3.47;;
6485;SDS011;3276;48.490;9.222;2023-05-24T04:02:12;6.73;;;3.80;;
6485;SDS011;3276;48.490;9.222;2023-05-24T04:04:38;6.70;;;3.80;;
6485;SDS011;3276;48.490;9.222;2023-05-24T04:07:04;6.00;;;3.90;;
6485;SDS011;3276;48.490;9.222;2023-05-24T04:09:29;6.60;;;4.43;;
6485;SDS011;3276;48.490;9.222;2023-05-24T04:11:58;5.57;;;3.90;;
6485;SDS011;3276;48.490;9.222;2023-05-24T04:14:23;8.80;;;4.53;;
6485;SDS011;3276;48.490;9.222;2023-05-24T04:16:49;7.73;;;4.17;;
6485;SDS011;3276;48.490;9.222;2023-05-24T04:19:15;8.90;;;4.80;;
6485;SDS011;3276;48.490;9.222;2023-05-24T04:21:41;8.97;;;4.10;;
6485;SDS011;3276;48.490;9.222;2023-05-24T04:24:06;6.87;;;4.40;;
6485;SDS011;3276;48.490;9.222;2023-05-24T04:26:32;6.37;;;4.00;;
6485;SDS011;3276;48.490;9.222;2023-05-24T04:28:59;8.27;;;3.90;;
6485;SDS011;3276;48.490;9.222;2023-05-24T04:31:24;7.73;;;4.03;;
6485;SDS011;3276;48.490;9.222;2023-05-24T04:33:53;9.53;;;4.10;;
6485;SDS011;3276;48.490;9.222;2023-05-24T04:36:19;10.07;;;4.47;;
6485;SDS011;3276;48.490;9.222;2023-05-24T04:38:46;10.30;;;5.73;;
6485;SDS011;3276;48.490;9.222;2023-05-24T04:41:12;9.13;;;4.93;;
6485;SDS011;3276;48.490;9.222;2023-05-24T04:43:38;4.80;;;3.77;;
6485;SDS011;3276;48.490;9.222;2023-05-24T04:46:04;6.83;;;4.50;;
6485;SDS011;3276;48.490;9.222;2023-05-24T04:48:30;10.00;;;4.77;;
6485;SDS011;3276;48.490;9.222;2023-05-24T04:50:56;9.70;;;5.13;;
6485;SDS011;3276;48.490;9.222;2023-05-24T04:53:28;6.20;;;3.90;;
6485;SDS011;3276;48.490;9.222;2023-05-24T04:55:54;7.30;;;4.07;;
6485;SDS011;3276;48.490;9.222;2023-05-24T04:58:20;5.17;;;3.73;;
6485;SDS011;3276;48.490;9.222;2023-05-24T05:00:45;4.80;;;3.83;;
6485;SDS011;3276;48.490;9.222;2023-05-24T05:03:11;9.40;;;4.37;;
6485;SDS011;3276;48.490;9.222;2023-05-24T05:05:37;7.17;;;4.00;;
6485;SDS011;3276;48.490;9.222;2023-05-24T05:08:02;6.70;;;3.27;;
6485;SDS011;3276;48.490;9.222;2023-05-24T05:10:31;5.33;;;4.10;;
6485;SDS011;3276;48.490;9.222;2023-05-24T05:12:56;6.47;;;4.70;;
6485;SDS011;3276;48.490;9.222;2023-05-24T05:15:22;8.50;;;4.47;;
6485;SDS011;3276;48.490;9.222;2023-05-24T05:17:48;5.03;;;3.83;;
6485;SDS011;3276;48.490;9.222;2023-05-24T05:20:14;4.77;;;3.83;;
6485;SDS011;3276;48.490;9.222;2023-05-24T05:22:46;9.90;;;4.97;;
6485;SDS011;3276;48.490;9.222;2023-05-24T05:25:12;5.93;;;4.40;;
6485;SDS011;3276;48.490;9.222;2023-05-24T05:27:38;9.40;;;5.30;;
6485;SDS011;3276;48.490;9.222;2023-05-24T05:30:04;8.20;;;4.40;;
6485;SDS011;3276;48.490;9.222;2023-05-24T05:32:29;5.50;;;4.10;;
6485;SDS011;3276;48.490;9.222;2023-05-24T05:34:55;6.80;;;4.37;;
6485;SDS011;3276;48.490;9.222;2023-05-24T05:37:20;8.20;;;4.20;;
6485;SDS011;3276;48.490;9.222;2023-05-24T05:39:46;9.23;;;5.30;;
6485;SDS011;3276;48.490;9.222;2023-05-24T05:42:12;5.57;;;3.47;;
6485;SDS011;3276;48.490;9.222;2023-05-24T05:44:37;8.40;;;5.37;;
6485;SDS011;3276;48.490;9.222;2023-05-24T05:47:03;6.13;;;3.50;;
6485;SDS011;3276;48.490;9.222;2023-05-24T05:49:31;7.90;;;5.60;;
6485;SDS011;3276;48.490;9.222;2023-05-24T05:52:00;7.60;;;4.80;;
6485;SDS011;3276;48.490;9.222;2023-05-24T05:54:26;10.77;;;5.60;;
6485;SDS011;3276;48.490;9.222;2023-05-24T05:56:52;8.30;;;5.33;;
6485;SDS011;3276;48.490;9.222;2023-05-24T05:59:18;7.37;;;5.13;;
6485;SDS011;3276;48.490;9.222;2023-05-24T06:01:43;7.23;;;4.80;;
6485;SDS011;3276;48.490;9.222;2023-05-24T06:04:13;8.87;;;4.87;;
6485;SDS011;3276;48.490;9.222;2023-05-24T06:06:39;12.13;;;4.93;;
6485;SDS011;3276;48.490;9.222;2023-05-24T06:09:04;5.73;;;4.40;;
6485;SDS011;3276;48.490;9.222;2023-05-24T06:11:30;13.13;;;5.27;;
6485;SDS011;3276;48.490;9.222;2023-05-24T06:13:56;11.30;;;4.50;;
6485;SDS011;3276;48.490;9.222;2023-05-24T06:16:21;6.33;;;4.57;;
6485;SDS011;3276;48.490;9.222;2023-05-24T06:18:47;9.40;;;5.10;;
6485;SDS011;3276;48.490;9.222;2023-05-24T06:21:16;6.77;;;5.10;;
6485;SDS011;3276;48.490;9.222;2023-05-24T06:23:41;11.10;;;4.43;;
6485;SDS011;3276;48.490;9.222;2023-05-24T06:26:07;5.40;;;4.60;;
6485;SDS011;3276;48.490;9.222;2023-05-24T06:28:36;7.40;;;4.77;;
6485;SDS011;3276;48.490;9.222;2023-05-24T06:31:02;12.07;;;4.73;;
6485;SDS011;3276;48.490;9.222;2023-05-24T06:33:28;12.27;;;4.80;;
6485;SDS011;3276;48.490;9.222;2023-05-24T06:35:55;9.70;;;5.47;;
6485;SDS011;3276;48.490;9.222;2023-05-24T06:38:21;8.73;;;4.67;;
6485;SDS011;3276;48.490;9.222;2023-05-24T06:40:46;15.10;;;6.03;;
6485;SDS011;3276;48.490;9.222;2023-05-24T06:43:12;18.33;;;5.20;;
6485;SDS011;3276;48.490;9.222;2023-05-24T06:45:38;10.87;;;5.63;;
6485;SDS011;3276;48.490;9.222;2023-05-24T06:48:03;7.53;;;4.87;;
6485;SDS011;3276;48.490;9.222;2023-05-24T06:50:29;9.90;;;5.57;;
6485;SDS011;3276;48.490;9.222;2023-05-24T06:52:54;6.33;;;4.77;;
6485;SDS011;3276;48.490;9.222;2023-05-24T06:55:20;9.27;;;5.77;;
6485;SDS011;3276;48.490;9.222;2023-05-24T06:57:46;16.60;;;5.10;;
6485;SDS011;3276;48.490;9.222;2023-05-24T07:00:11;20.87;;;7.00;;
6485;SDS011;3276;48.490;9.222;2023-05-24T07:02:37;14.80;;;6.67;;
6485;SDS011;3276;48.490;9.222;2023-05-24T07:05:04;10.10;;;5.20;;
6485;SDS011;3276;48.490;9.222;2023-05-24T07:07:30;9.73;;;5.03;;
6485;SDS011;3276;48.490;9.222;2023-05-24T07:09:56;8.50;;;5.00;;
6485;SDS011;3276;48.490;9.222;2023-05-24T07:12:21;9.77;;;5.10;;
6485;SDS011;3276;48.490;9.222;2023-05-24T07:14:47;7.60;;;4.90;;
6485;SDS011;3276;48.490;9.222;2023-05-24T07:17:13;13.27;;;6.00;;
6485;SDS011;3276;48.490;9.222;2023-05-24T07:19:38;8.40;;;5.20;;
6485;SDS011;3276;48.490;9.222;2023-05-24T07:22:04;6.20;;;5.00;;
6485;SDS011;3276;48.490;9.222;2023-05-24T07:24:30;9.03;;;5.10;;
6485;SDS011;3276;48.490;9.222;2023-05-24T07:26:55;9.43;;;5.20;;
6485;SDS011;3276;48.490;9.222;2023-05-24T07:29:21;8.27;;;4.60;;
6485;SDS011;3276;48.490;9.222;2023-05-24T07:31:47;12.63;;;6.37;;
6485;SDS011;3276;48.490;9.222;2023-05-24T07:34:13;5.77;;;4.90;;
6485;SDS011;3276;48.490;9.222;2023-05-24T07:36:39;9.80;;;5.77;;
6485;SDS011;3276;48.490;9.222;2023-05-24T07:39:06;7.17;;;4.60;;
6485;SDS011;3276;48.490;9.222;2023-05-24T07:41:33;6.10;;;4.40;;
6485;SDS011;3276;48.490;9.222;2023-05-24T07:44:00;7.40;;;4.93;;
6485;SDS011;3276;48.490;9.222;2023-05-24T07:46:25;6.03;;;5.10;;
6485;SDS011;3276;48.490;9.222;2023-05-24T07:48:51;7.30;;;4.43;;
6485;SDS011;3276;48.490;9.222;2023-05-24T07:51:17;11.00;;;5.07;;
6485;SDS011;3276;48.490;9.222;2023-05-24T07:53:42;10.73;;;5.60;;
6485;SDS011;3276;48.490;9.222;2023-05-24T07:56:08;12.00;;;5.23;;
6485;SDS011;3276;48.490;9.222;2023-05-24T07:58:34;8.83;;;5.17;;
6485;SDS011;3276;48.490;9.222;2023-05-24T08:00:59;13.00;;;5.93;;
6485;SDS011;3276;48.490;9.222;2023-05-24T08:03:25;7.37;;;5.10;;
6485;SDS011;3276;48.490;9.222;2023-05-24T08:05:51;9.70;;;4.87;;
6485;SDS011;3276;48.490;9.222;2023-05-24T08:08:16;10.67;;;5.20;;
6485;SDS011;3276;48.490;9.222;2023-05-24T08:10:42;8.30;;;4.20;;
6485;SDS011;3276;48.490;9.222;2023-05-24T08:13:07;10.03;;;5.90;;
6485;SDS011;3276;48.490;9.222;2023-05-24T08:15:33;7.23;;;4.60;;
6485;SDS011;3276;48.490;9.222;2023-05-24T08:17:59;9.73;;;4.70;;
6485;SDS011;3276;48.490;9.222;2023-05-24T08:20:24;13.00;;;5.30;;
6485;SDS011;3276;48.490;9.222;2023-05-24T08:22:50;7.40;;;4.43;;
6485;SDS011;3276;48.490;9.222;2023-05-24T08:25:15;6.73;;;4.87;;
6485;SDS011;3276;48.490;9.222;2023-05-24T08:27:41;6.33;;;5.20;;
6485;SDS011;3276;48.490;9.222;2023-05-24T08:30:07;9.20;;;4.53;;
6485;SDS011;3276;48.490;9.222;2023-05-24T08:32:33;8.73;;;4.57;;
6485;SDS011;3276;48.490;9.222;2023-05-24T08:34:58;8.40;;;5.40;;
6485;SDS011;3276;48.490;9.222;2023-05-24T08:37:24;11.53;;;5.07;;
6485;SDS011;3276;48.490;9.222;2023-05-24T08:39:50;13.40;;;5.93;;
6485;SDS011;3276;48.490;9.222;2023-05-24T08:42:15;8.77;;;5.23;;
6485;SDS011;3276;48.490;9.222;2023-05-24T08:44:51;6.17;;;4.27;;
6485;SDS011;3276;48.490;9.222;2023-05-24T08:47:20;5.37;;;4.33;;
6485;SDS011;3276;48.490;9.222;2023-05-24T08:49:46;9.80;;;4.80;;
6485;SDS011;3276;48.490;9.222;2023-05-24T08:52:14;10.23;;;5.07;;
6485;SDS011;3276;48.490;9.222;2023-05-24T08:54:40;6.13;;;4.50;;
6485;SDS011;3276;48.490;9.222;2023-05-24T08:57:08;7.77;;;5.43;;
6485;SDS011;3276;48.490;9.222;2023-05-24T08:59:35;7.27;;;5.27;;
6485;SDS011;3276;48.490;9.222;2023-05-24T09:02:03;6.03;;;5.00;;
6485;SDS011;3276;48.490;9.222;2023-05-24T09:04:29;7.37;;;4.37;;
6485;SDS011;3276;48.490;9.222;2023-05-24T09:06:55;13.90;;;7.27;;
6485;SDS011;3276;48.490;9.222;2023-05-24T09:09:21;11.63;;;6.07;;
6485;SDS011;3276;48.490;9.222;2023-05-24T09:11:51;9.77;;;5.60;;
6485;SDS011;3276;48.490;9.222;2023-05-24T09:14:20;8.50;;;5.40;;
6485;SDS011;3276;48.490;9.222;2023-05-24T09:16:46;10.50;;;5.67;;
6485;SDS011;3276;48.490;9.222;2023-05-24T09:19:11;14.73;;;5.30;;
6485;SDS011;3276;48.490;9.222;2023-05-24T09:21:38;6.40;;;5.33;;
6485;SDS011;3276;48.490;9.222;2023-05-24T09:24:07;16.37;;;5.53;;
6485;SDS011;3276;48.490;9.222;2023-05-24T09:26:35;7.80;;;5.50;;
6485;SDS011;3276;48.490;9.222;2023-05-24T09:29:01;8.80;;;6.13;;
6485;SDS011;3276;48.490;9.222;2023-05-24T09:31:31;11.07;;;6.13;;
6485;SDS011;3276;48.490;9.222;2023-05-24T09:33:58;9.40;;;6.67;;
6485;SDS011;3276;48.490;9.222;2023-05-24T09:36:26;12.93;;;6.50;;
6485;SDS011;3276;48.490;9.222;2023-05-24T09:39:06;12.33;;;5.93;;
6485;SDS011;3276;48.490;9.222;2023-05-24T09:41:33;12.47;;;6.43;;
6485;SDS011;3276;48.490;9.222;2023-05-24T09:44:02;12.53;;;5.30;;
6485;SDS011;3276;48.490;9.222;2023-05-24T09:46:33;7.33;;;6.37;;
6485;SDS011;3276;48.490;9.222;2023-05-24T09:49:00;9.07;;;6.23;;
6485;SDS011;3276;48.490;9.222;2023-05-24T09:51:30;9.80;;;6.10;;
6485;SDS011;3276;48.490;9.222;2023-05-24T09:53:56;8.00;;;5.43;;
6485;SDS011;3276;48.490;9.222;2023-05-24T09:56:25;12.70;;;6.60;;
6485;SDS011;3276;48.490;9.222;2023-05-24T09:58:51;8.80;;;5.73;;
6485;SDS011;3276;48.490;9.222;2023-05-24T10:01:19;11.67;;;6.50;;
6485;SDS011;3276;48.490;9.222;2023-05-24T10:03:54;9.80;;;5.30;;
6485;SDS011;3276;48.490;9.222;2023-05-24T10:06:21;15.73;;;6.87;;
6485;SDS011;3276;48.490;9.222;2023-05-24T10:08:48;7.27;;;5.30;;
6485;SDS011;3276;48.490;9.222;2023-05-24T10:11:15;9.60;;;5.90;;
6485;SDS011;3276;48.490;9.222;2023-05-24T10:13:42;8.70;;;6.17;;
6485;SDS011;3276;48.490;9.222;2023-05-24T10:16:08;12.17;;;6.20;;
6485;SDS011;3276;48.490;9.222;2023-05-24T10:18:34;11.07;;;6.63;;
6485;SDS011;3276;48.490;9.222;2023-05-24T10:21:00;6.50;;;5.90;;
6485;SDS011;3276;48.490;9.222;2023-05-24T10:23:29;10.20;;;6.63;;
6485;SDS011;3276;48.490;9.222;2023-05-24T10:26:09;10.50;;;5.40;;
6485;SDS011;3276;48.490;9.222;2023-05-24T10:28:37;8.03;;;5.00;;
6485;SDS011;3276;48.490;9.222;2023-05-24T10:31:10;9.87;;;5.97;;
6485;SDS011;3276;48.490;9.222;2023-05-24T10:33:41;14.00;;;6.33;;
6485;SDS011;3276;48.490;9.222;2023-05-24T10:36:09;8.07;;;5.73;;
6485;SDS011;3276;48.490;9.222;2023-05-24T10:38:37;8.53;;;6.33;;
6485;SDS011;3276;48.490;9.222;2023-05-24T10:41:04;14.63;;;6.00;;
6485;SDS011;3276;48.490;9.222;2023-05-24T10:43:32;10.47;;;5.00;;
6485;SDS011;3276;48.490;9.222;2023-05-24T10:46:01;8.70;;;5.90;;
6485;SDS011;3276;48.490;9.222;2023-05-24T10:50:54;11.27;;;5.00;;
6485;SDS011;3276;48.490;9.222;2023-05-24T10:53:25;8.43;;;6.13;;
6485;SDS011;3276;48.490;9.222;2023-05-24T10:58:18;20.77;;;5.80;;
6485;SDS011;3276;48.490;9.222;2023-05-24T11:00:44;9.03;;;5.47;;
6485;SDS011;3276;48.490;9.222;2023-05-24T11:03:12;9.43;;;6.33;;
6485;SDS011;3276;48.490;9.222;2023-05-24T11:08:11;14.83;;;5.07;;
6485;SDS011;3276;48.490;9.222;2023-05-24T11:10:37;9.27;;;6.20;;
6485;SDS011;3276;48.490;9.222;2023-05-24T11:13:05;10.20;;;6.07;;
6485;SDS011;3276;48.490;9.222;2023-05-24T11:15:33;7.90;;;5.67;;
6485;SDS011;3276;48.490;9.222;2023-05-24T11:20:32;10.57;;;6.47;;
6485;SDS011;3276;48.490;9.222;2023-05-24T11:22:58;9.33;;;5.10;;
6485;SDS011;3276;48.490;9.222;2023-05-24T11:25:25;8.00;;;5.60;;
6485;SDS011;3276;48.490;9.222;2023-05-24T11:27:51;9.40;;;6.00;;
6485;SDS011;3276;48.490;9.222;2023-05-24T11:30:17;11.77;;;6.43;;
6485;SDS011;3276;48.490;9.222;2023-05-24T11:32:46;10.70;;;5.80;;
6485;SDS011;3276;48.490;9.222;2023-05-24T11:35:12;17.33;;;7.57;;
6485;SDS011;3276;48.490;9.222;2023-05-24T11:37:38;13.47;;;6.47;;
6485;SDS011;3276;48.490;9.222;2023-05-24T11:40:04;13.33;;;6.20;;
6485;SDS011;3276;48.490;9.222;2023-05-24T11:42:34;17.40;;;6.93;;
6485;SDS011;3276;48.490;9.222;2023-05-24T11:45:01;10.70;;;5.47;;
6485;SDS011;3276;48.490;9.222;2023-05-24T11:47:29;19.70;;;9.97;;
6485;SDS011;3276;48.490;9.222;2023-05-24T11:49:54;8.47;;;5.60;;
6485;SDS011;3276;48.490;9.222;2023-05-24T11:52:20;7.83;;;5.80;;
6485;SDS011;3276;48.490;9.222;2023-05-24T11:54:46;12.63;;;8.00;;
6485;SDS011;3276;48.490;9.222;2023-05-24T11:57:13;12.13;;;6.90;;
6485;SDS011;3276;48.490;9.222;2023-05-24T11:59:39;12.73;;;6.63;;
6485;SDS011;3276;48.490;9.222;2023-05-24T12:02:05;19.27;;;8.13;;
6485;SDS011;3276;48.490;9.222;2023-05-24T12:04:34;6.63;;;5.40;;
6485;SDS011;3276;48.490;9.222;2023-05-24T12:07:00;12.23;;;6.23;;
6485;SDS011;3276;48.490;9.222;2023-05-24T12:09:26;9.13;;;5.53;;
6485;SDS011;3276;48.490;9.222;2023-05-24T12:11:52;11.90;;;5.00;;
6485;SDS011;3276;48.490;9.222;2023-05-24T12:14:20;16.70;;;6.53;;
6485;SDS011;3276;48.490;9.222;2023-05-24T12:16:48;9.40;;;6.07;;
6485;SDS011;3276;48.490;9.222;2023-05-24T12:19:21;7.27;;;5.30;;
6485;SDS011;3276;48.490;9.222;2023-05-24T12:21:49;13.20;;;5.97;;
6485;SDS011;3276;48.490;9.222;2023-05-24T12:24:18;9.50;;;6.30;;
6485;SDS011;3276;48.490;9.222;2023-05-24T12:26:45;16.70;;;7.00;;
6485;SDS011;3276;48.490;9.222;2023-05-24T12:29:12;10.50;;;6.20;;
6485;SDS011;3276;48.490;9.222;2023-05-24T12:31:39;13.47;;;6.30;;
6485;SDS011;3276;48.490;9.222;2023-05-24T12:34:06;10.00;;;6.23;;
6485;SDS011;3276;48.490;9.222;2023-05-24T12:36:36;9.10;;;5.37;;
6485;SDS011;3276;48.490;9.222;2023-05-24T12:39:17;9.67;;;5.90;;
6485;SDS011;3276;48.490;9.222;2023-05-24T12:41:44;12.27;;;7.23;;
6485;SDS011;3276;48.490;9.222;2023-05-24T12:44:24;12.37;;;7.20;;
6485;SDS011;3276;48.490;9.222;2023-05-24T12:46:54;10.03;;;5.20;;
6485;SDS011;3276;48.490;9.222;2023-05-24T12:49:20;8.93;;;5.67;;
6485;SDS011;3276;48.490;9.222;2023-05-24T12:51:49;13.90;;;6.30;;
6485;SDS011;3276;48.490;9.222;2023-05-24T12:54:19;11.70;;;6.07;;
6485;SDS011;3276;48.490;9.222;2023-05-24T12:56:46;10.47;;;6.47;;
6485;SDS011;3276;48.490;9.222;2023-05-24T12:59:12;10.83;;;6.10;;
6485;SDS011;3276;48.490;9.222;2023-05-24T13:01:38;11.50;;;6.90;;
6485;SDS011;3276;48.490;9.222;2023-05-24T13:04:03;5.80;;;5.30;;
6485;SDS011;3276;48.490;9.222;2023-05-24T13:06:29;11.40;;;6.70;;
6485;SDS011;3276;48.490;9.222;2023-05-24T13:08:55;8.00;;;5.60;;
6485;SDS011;3276;48.490;9.222;2023-05-24T13:11:20;12.70;;;5.57;;
6485;SDS011;3276;48.490;9.222;2023-05-24T13:13:46;7.70;;;5.80;;
6485;SDS011;3276;48.490;9.222;2023-05-24T13:16:12;7.23;;;6.03;;
6485;SDS011;3276;48.490;9.222;2023-05-24T13:18:38;14.97;;;7.83;;
6485;SDS011;3276;48.490;9.222;2023-05-24T13:21:04;15.10;;;6.83;;
6485;SDS011;3276;48.490;9.222;2023-05-24T13:23:33;6.80;;;5.63;;
6485;SDS011;3276;48.490;9.222;2023-05-24T13:26:01;14.13;;;6.27;;
6485;SDS011;3276;48.490;9.222;2023-05-24T13:28:26;8.50;;;6.20;;
6485;SDS011;3276;48.490;9.222;2023-05-24T13:30:53;9.97;;;5.90;;
6485;SDS011;3276;48.490;9.222;2023-05-24T13:33:19;10.97;;;7.03;;
6485;SDS011;3276;48.490;9.222;2023-05-24T13:35:44;8.27;;;5.10;;
6485;SDS011;3276;48.490;9.222;2023-05-24T13:38:10;8.57;;;6.00;;
6485;SDS011;3276;48.490;9.222;2023-05-24T13:40:36;15.63;;;9.20;;
6485;SDS011;3276;48.490;9.222;2023-05-24T13:43:03;8.30;;;5.40;;
6485;SDS011;3276;48.490;9.222;2023-05-24T13:45:29;10.17;;;6.43;;
6485;SDS011;3276;48.490;9.222;2023-05-24T13:47:57;11.00;;;6.67;;
6485;SDS011;3276;48.490;9.222;2023-05-24T13:50:27;6.70;;;5.00;;
6485;SDS011;3276;48.490;9.222;2023-05-24T13:53:02;9.80;;;5.73;;
6485;SDS011;3276;48.490;9.222;2023-05-24T13:55:29;13.83;;;5.90;;
6485;SDS011;3276;48.490;9.222;2023-05-24T13:57:56;6.97;;;5.10;;
6485;SDS011;3276;48.490;9.222;2023-05-24T14:00:22;7.10;;;5.63;;
6485;SDS011;3276;48.490;9.222;2023-05-24T14:02:48;11.03;;;5.87;;
6485;SDS011;3276;48.490;9.222;2023-05-24T14:05:15;8.63;;;5.40;;
6485;SDS011;3276;48.490;9.222;2023-05-24T14:07:41;12.80;;;6.43;;
6485;SDS011;3276;48.490;9.222;2023-05-24T14:10:07;7.17;;;5.50;;
6485;SDS011;3276;48.490;9.222;2023-05-24T14:12:33;9.10;;;5.33;;
6485;SDS011;3276;48.490;9.222;2023-05-24T14:14:59;9.27;;;6.63;;
6485;SDS011;3276;48.490;9.222;2023-05-24T14:17:25;8.87;;;5.37;;
6485;SDS011;3276;48.490;9.222;2023-05-24T14:19:51;11.17;;;8.57;;
6485;SDS011;3276;48.490;9.222;2023-05-24T14:22:17;5.23;;;4.73;;
6485;SDS011;3276;48.490;9.222;2023-05-24T14:24:42;6.13;;;4.90;;
6485;SDS011;3276;48.490;9.222;2023-05-24T14:27:08;9.40;;;4.67;;
6485;SDS011;3276;48.490;9.222;2023-05-24T14:29:33;6.00;;;4.83;;
6485;SDS011;3276;48.490;9.222;2023-05-24T14:31:59;7.10;;;5.97;;
6485;SDS011;3276;48.490;9.222;2023-05-24T14:34:25;5.80;;;5.20;;
6485;SDS011;3276;48.490;9.222;2023-05-24T14:36:50;7.03;;;5.67;;
6485;SDS011;3276;48.490;9.222;2023-05-24T14:39:16;7.47;;;5.00;;
6485;SDS011;3276;48.490;9.222;2023-05-24T14:41:41;10.43;;;6.13;;
6485;SDS011;3276;48.490;9.222;2023-05-24T14:44:07;10.07;;;5.90;;
6485;SDS011;3276;48.490;9.222;2023-05-24T14:46:32;11.83;;;5.20;;
6485;SDS011;3276;48.490;9.222;2023-05-24T14:48:58;5.87;;;5.37;;
6485;SDS011;3276;48.490;9.222;2023-05-24T14:51:23;8.90;;;5.00;;
6485;SDS011;3276;48.490;9.222;2023-05-24T14:53:49;6.43;;;5.53;;
6485;SDS011;3276;48.490;9.222;2023-05-24T14:56:15;7.97;;;5.70;;
6485;SDS011;3276;48.490;9.222;2023-05-24T14:58:40;9.60;;;5.90;;
6485;SDS011;3276;48.490;9.222;2023-05-24T15:01:06;5.30;;;4.80;;
6485;SDS011;3276;48.490;9.222;2023-05-24T15:03:32;8.23;;;5.80;;
6485;SDS011;3276;48.490;9.222;2023-05-24T15:05:59;6.23;;;5.30;;
6485;SDS011;3276;48.490;9.222;2023-05-24T15:08:24;7.67;;;5.50;;
6485;SDS011;3276;48.490;9.222;2023-05-24T15:10:50;15.03;;;5.77;;
6485;SDS011;3276;48.490;9.222;2023-05-24T15:13:15;10.97;;;6.30;;
6485;SDS011;3276;48.490;9.222;2023-05-24T15:15:42;9.23;;;6.00;;
6485;SDS011;3276;48.490;9.222;2023-05-24T15:18:08;8.03;;;5.20;;
6485;SDS011;3276;48.490;9.222;2023-05-24T15:20:34;10.00;;;5.43;;
6485;SDS011;3276;48.490;9.222;2023-05-24T15:23:00;5.37;;;4.57;;
6485;SDS011;3276;48.490;9.222;2023-05-24T15:25:26;19.60;;;5.43;;
6485;SDS011;3276;48.490;9.222;2023-05-24T15:27:52;6.43;;;5.17;;
6485;SDS011;3276;48.490;9.222;2023-05-24T15:30:18;6.47;;;5.90;;
6485;SDS011;3276;48.490;9.222;2023-05-24T15:32:44;4.77;;;4.30;;
6485;SDS011;3276;48.490;9.222;2023-05-24T15:35:10;8.03;;;5.10;;
6485;SDS011;3276;48.490;9.222;2023-05-24T15:37:36;6.60;;;5.70;;